createdAt,value
2022-09-24T00:00:52.601Z,3.90
2022-09-24T00:03:23.782Z,4.60
2022-09-24T00:05:56.724Z,4.00
2022-09-24T00:08:26.880Z,3.50
2022-09-24T00:10:57.278Z,4.20
2022-09-24T00:13:27.399Z,3.40
2022-09-24T00:15:57.583Z,3.87
2022-09-24T00:18:27.816Z,3.92
2022-09-24T00:21:00.613Z,4.17
2022-09-24T00:23:30.876Z,3.63
2022-09-24T00:26:13.480Z,3.80
2022-09-24T00:28:43.573Z,4.05
2022-09-24T00:31:13.694Z,3.40
2022-09-24T00:33:43.799Z,3.93
2022-09-24T00:36:16.551Z,3.77
2022-09-24T00:38:46.903Z,3.63
2022-09-24T00:41:16.981Z,3.88
2022-09-24T00:43:47.127Z,3.40
2022-09-24T00:46:25.298Z,3.57
2022-09-24T00:49:00.208Z,3.50
2022-09-24T00:51:35.894Z,3.67
2022-09-24T00:54:12.577Z,4.00
2022-09-24T00:56:45.888Z,4.32
2022-09-24T00:59:19.152Z,3.90
2022-09-24T01:01:51.529Z,3.70
2022-09-24T01:04:23.978Z,3.67
2022-09-24T01:06:57.666Z,3.97
2022-09-24T01:09:30.693Z,3.90
2022-09-24T01:12:15.236Z,3.80
2022-09-24T01:15:15.531Z,3.53
2022-09-24T01:17:54.565Z,3.55
2022-09-24T01:21:12.779Z,4.10
2022-09-24T01:24:28.802Z,3.47
2022-09-24T01:27:07.322Z,4.25
2022-09-24T01:29:59.181Z,3.90
2022-09-24T01:32:38.306Z,3.70
2022-09-24T01:35:16.363Z,3.78
2022-09-24T01:37:52.111Z,3.78
2022-09-24T01:40:26.129Z,3.92
2022-09-24T01:42:58.719Z,4.15
2022-09-24T01:45:32.891Z,3.50
2022-09-24T01:48:04.774Z,3.75
2022-09-24T01:50:43.016Z,3.97
2022-09-24T01:53:20.164Z,4.00
2022-09-24T01:55:54.756Z,4.13
2022-09-24T01:58:32.194Z,3.47
2022-09-24T02:01:10.878Z,3.70
2022-09-24T02:03:47.155Z,3.97
2022-09-24T02:06:22.151Z,3.40
2022-09-24T02:08:52.627Z,3.97
2022-09-24T02:11:25.561Z,3.65
2022-09-24T02:14:03.321Z,3.83
2022-09-24T02:16:39.296Z,3.58
2022-09-24T02:19:14.616Z,3.50
2022-09-24T02:21:47.630Z,3.65
2022-09-24T02:24:23.122Z,3.30
2022-09-24T02:26:53.602Z,3.42
2022-09-24T02:29:23.887Z,3.53
2022-09-24T02:31:59.565Z,3.35
2022-09-24T02:34:36.810Z,3.75
2022-09-24T02:37:09.462Z,3.05
2022-09-24T02:39:39.665Z,3.53
2022-09-24T02:42:14.232Z,4.47
2022-09-24T02:44:44.344Z,4.05
2022-09-24T02:47:19.168Z,4.87
2022-09-24T02:49:49.277Z,3.47
2022-09-24T02:52:19.275Z,3.40
2022-09-24T02:54:50.407Z,3.13
2022-09-24T02:59:50.524Z,3.50
2022-09-24T03:02:23.371Z,3.33
2022-09-24T03:04:53.463Z,3.17
2022-09-24T03:07:23.680Z,3.38
2022-09-24T03:09:53.662Z,3.27
2022-09-24T03:12:23.685Z,3.80
2022-09-24T03:14:53.921Z,3.70
2022-09-24T03:17:27.937Z,4.37
2022-09-24T03:19:58.246Z,3.38
2022-09-24T03:22:28.258Z,3.40
2022-09-24T03:24:58.278Z,3.13
2022-09-24T03:27:28.248Z,3.93
2022-09-24T03:30:10.678Z,3.15
2022-09-24T03:32:43.369Z,3.40
2022-09-24T03:35:13.798Z,3.42
2022-09-24T03:37:48.928Z,3.17
2022-09-24T03:40:19.630Z,3.05
2022-09-24T03:42:49.684Z,3.30
2022-09-24T03:45:20.463Z,3.40
2022-09-24T03:47:53.272Z,3.40
2022-09-24T03:50:23.664Z,4.35
2022-09-24T03:52:53.698Z,3.72
2022-09-24T03:55:23.712Z,2.93
2022-09-24T03:57:53.682Z,3.30
2022-09-24T04:00:24.033Z,3.08
2022-09-24T04:02:56.982Z,3.33
2022-09-24T04:05:27.195Z,3.25
2022-09-24T04:07:57.304Z,3.20
2022-09-24T04:10:28.256Z,3.20
2022-09-24T04:12:58.837Z,3.28
2022-09-24T04:15:29.052Z,2.85
2022-09-24T04:18:02.537Z,3.00
2022-09-24T04:20:34.066Z,2.95
2022-09-24T04:23:04.739Z,2.97
2022-09-24T04:25:35.684Z,3.10
2022-09-24T04:30:38.984Z,3.30
2022-09-24T04:33:12.041Z,3.10
2022-09-24T04:35:42.110Z,3.15
2022-09-24T04:38:12.193Z,2.97
2022-09-24T04:40:42.742Z,3.13
2022-09-24T04:43:13.418Z,2.75
2022-09-24T04:45:46.615Z,3.22
2022-09-24T04:48:19.509Z,3.13
2022-09-24T04:50:49.741Z,3.20
2022-09-24T04:53:19.896Z,2.90
2022-09-24T04:55:49.920Z,3.30
2022-09-24T04:58:19.952Z,3.38
2022-09-24T05:00:51.328Z,3.70
2022-09-24T05:03:24.060Z,3.30
2022-09-24T05:05:54.113Z,3.47
2022-09-24T05:08:24.148Z,3.30
2022-09-24T05:10:54.259Z,3.27
2022-09-24T05:13:24.418Z,3.37
2022-09-24T05:15:54.681Z,3.80
2022-09-24T05:18:28.027Z,3.50
2022-09-24T05:20:58.147Z,3.63
2022-09-24T05:23:28.124Z,3.23
2022-09-24T05:26:10.559Z,3.58
2022-09-24T05:28:41.062Z,3.33
2022-09-24T05:31:11.240Z,3.90
2022-09-24T05:33:44.490Z,3.40
2022-09-24T05:36:14.574Z,3.78
2022-09-24T05:38:44.602Z,3.20
2022-09-24T05:41:14.569Z,3.50
2022-09-24T05:43:44.580Z,3.83
2022-09-24T05:46:14.760Z,3.57
2022-09-24T05:48:47.396Z,3.43
2022-09-24T05:51:17.388Z,3.17
2022-09-24T05:53:47.643Z,3.15
2022-09-24T05:56:17.785Z,3.15
2022-09-24T05:58:47.757Z,3.10
2022-09-24T06:01:17.856Z,2.92
2022-09-24T06:03:50.527Z,3.30
2022-09-24T06:06:20.598Z,3.00
2022-09-24T06:08:50.596Z,3.10
2022-09-24T06:11:20.897Z,2.90
2022-09-24T06:13:51.377Z,3.45
2022-09-24T06:16:21.861Z,3.72
2022-09-24T06:18:54.605Z,3.50
2022-09-24T06:21:24.642Z,3.45
2022-09-24T06:23:54.659Z,3.33
2022-09-24T06:26:26.321Z,3.10
2022-09-24T06:29:00.777Z,3.15
2022-09-24T06:31:34.838Z,3.13
2022-09-24T06:34:07.600Z,2.97
2022-09-24T06:36:37.811Z,3.03
2022-09-24T06:39:07.926Z,2.97
2022-09-24T06:41:37.999Z,3.30
2022-09-24T06:44:07.959Z,3.57
2022-09-24T06:46:38.107Z,3.17
2022-09-24T06:49:11.156Z,3.67
2022-09-24T06:51:43.056Z,3.75
2022-09-24T06:54:13.134Z,3.60
2022-09-24T06:56:43.113Z,4.13
2022-09-24T06:59:13.423Z,3.63
2022-09-24T07:01:43.533Z,4.13
2022-09-24T07:04:16.316Z,3.35
2022-09-24T07:06:58.801Z,3.08
2022-09-24T07:09:28.850Z,3.15
2022-09-24T07:12:04.844Z,3.07
2022-09-24T07:14:34.938Z,3.30
2022-09-24T07:17:05.022Z,3.20
2022-09-24T07:19:38.385Z,3.17
2022-09-24T07:22:08.784Z,3.10
2022-09-24T07:24:38.854Z,2.90
2022-09-24T07:27:09.430Z,3.30
2022-09-24T07:29:39.658Z,3.17
2022-09-24T07:32:10.303Z,3.13
2022-09-24T07:34:43.765Z,3.08
2022-09-24T07:37:14.195Z,3.13
2022-09-24T07:39:45.715Z,3.20
2022-09-24T07:42:15.771Z,3.50
2022-09-24T07:44:47.806Z,3.27
2022-09-24T07:47:18.700Z,3.28
2022-09-24T07:49:51.326Z,3.00
2022-09-24T07:52:21.388Z,3.53
2022-09-24T07:54:52.406Z,3.28
2022-09-24T07:57:22.445Z,3.30
2022-09-24T07:59:52.943Z,3.40
2022-09-24T08:02:23.462Z,3.17
2022-09-24T08:07:26.421Z,3.03
2022-09-24T08:09:56.512Z,3.00
2022-09-24T08:12:30.025Z,2.60
2022-09-24T08:15:00.141Z,3.50
2022-09-24T08:17:30.297Z,6.47
2022-09-24T08:20:03.121Z,3.55
2022-09-24T08:22:33.879Z,3.10
2022-09-24T08:25:04.493Z,3.22
2022-09-24T08:27:37.151Z,3.13
2022-09-24T08:30:09.363Z,2.58
2022-09-24T08:32:39.575Z,2.40
2022-09-24T08:35:12.669Z,2.90
2022-09-24T08:37:42.842Z,2.70
2022-09-24T08:40:17.857Z,2.70
2022-09-24T08:42:54.407Z,2.90
2022-09-24T08:45:37.130Z,2.50
2022-09-24T08:48:14.819Z,2.78
2022-09-24T08:50:57.923Z,3.10
2022-09-24T08:53:34.122Z,2.75
2022-09-24T08:56:05.876Z,2.50
2022-09-24T08:58:44.809Z,2.85
2022-09-24T09:01:34.768Z,2.47
2022-09-24T09:04:15.439Z,2.80
2022-09-24T09:07:11.725Z,2.53
2022-09-24T09:09:49.375Z,2.53
2022-09-24T09:12:26.903Z,2.70
2022-09-24T09:15:05.480Z,2.65
2022-09-24T09:17:45.846Z,2.70
2022-09-24T09:20:22.679Z,2.92
2022-09-24T09:22:56.307Z,2.70
2022-09-24T09:25:30.001Z,2.88
2022-09-24T09:28:04.888Z,2.70
2022-09-24T09:30:44.771Z,3.00
2022-09-24T09:33:33.998Z,2.58
2022-09-24T09:36:28.831Z,3.00
2022-09-24T09:39:11.570Z,3.47
2022-09-24T09:41:47.822Z,2.90
2022-09-24T09:44:25.832Z,2.42
2022-09-24T09:47:06.958Z,3.55
2022-09-24T09:49:41.329Z,3.63
2022-09-24T09:52:19.604Z,3.03
2022-09-24T09:54:52.807Z,3.22
2022-09-24T09:57:26.517Z,2.72
2022-09-24T09:59:58.339Z,3.33
2022-09-24T10:02:31.773Z,2.80
2022-09-24T10:05:04.660Z,2.72
2022-09-24T10:07:35.675Z,2.80
2022-09-24T10:10:24.010Z,2.40
2022-09-24T10:12:56.939Z,2.55
2022-09-24T10:15:27.636Z,2.10
2022-09-24T10:17:58.020Z,2.42
2022-09-24T10:20:34.633Z,2.70
2022-09-24T10:23:09.345Z,3.70
2022-09-24T10:25:42.195Z,4.38
2022-09-24T10:28:32.997Z,3.63
2022-09-24T10:31:07.755Z,3.00
2022-09-24T10:33:40.632Z,2.95
2022-09-24T10:36:20.194Z,3.13
2022-09-24T10:38:50.489Z,5.55
2022-09-24T10:41:32.441Z,5.30
2022-09-24T10:44:07.761Z,3.60
2022-09-24T10:47:23.484Z,4.18
2022-09-24T10:50:20.269Z,2.50
2022-09-24T10:52:57.180Z,3.67
2022-09-24T10:55:56.378Z,2.78
2022-09-24T10:59:07.805Z,20.02
2022-09-24T11:01:49.934Z,3.92
2022-09-24T11:04:38.628Z,3.78
2022-09-24T11:07:41.896Z,3.42
2022-09-24T11:10:26.793Z,3.60
2022-09-24T11:13:13.717Z,3.58
2022-09-24T11:16:06.671Z,3.35
2022-09-24T11:18:47.337Z,2.50
2022-09-24T11:21:34.377Z,3.40
2022-09-24T11:24:35.099Z,3.65
2022-09-24T11:27:28.064Z,3.55
2022-09-24T11:30:12.995Z,4.20
2022-09-24T11:33:04.414Z,4.50
2022-09-24T11:35:59.034Z,3.22
2022-09-24T11:38:47.876Z,3.35
2022-09-24T11:41:35.138Z,3.10
2022-09-24T11:44:28.512Z,3.03
2022-09-24T11:47:12.768Z,3.78
2022-09-24T11:50:04.700Z,8.02
2022-09-24T11:52:40.631Z,6.40
2022-09-24T11:55:20.154Z,4.45
2022-09-24T11:57:56.985Z,3.10
2022-09-24T12:00:32.154Z,3.33
2022-09-24T12:03:09.211Z,3.25
2022-09-24T12:05:49.525Z,2.88
2022-09-24T12:08:27.808Z,2.75
2022-09-24T12:11:04.744Z,3.17
2022-09-24T12:13:41.857Z,2.92
2022-09-24T12:16:17.292Z,2.60
2022-09-24T12:18:58.648Z,3.25
2022-09-24T12:21:37.587Z,4.25
2022-09-24T12:24:16.887Z,4.28
2022-09-24T12:26:49.370Z,2.65
2022-09-24T12:29:52.977Z,3.00
2022-09-24T12:32:42.228Z,3.13
2022-09-24T12:35:25.190Z,3.38
2022-09-24T12:38:06.785Z,2.20
2022-09-24T12:41:10.169Z,2.60
2022-09-24T12:43:48.337Z,3.00
2022-09-24T12:46:22.841Z,2.90
2022-09-24T12:48:55.656Z,3.20
2022-09-24T12:51:26.887Z,3.47
2022-09-24T12:54:10.960Z,3.05
2022-09-24T12:56:41.177Z,3.28
2022-09-24T12:59:28.594Z,2.78
2022-09-24T13:02:10.290Z,2.47
2022-09-24T13:04:40.615Z,2.42
2022-09-24T13:07:37.305Z,2.45
2022-09-24T13:10:27.470Z,2.47
2022-09-24T13:13:00.139Z,2.70
2022-09-24T13:15:37.687Z,2.80
2022-09-24T13:18:25.254Z,2.90
2022-09-24T13:21:05.744Z,2.33
2022-09-24T13:23:49.022Z,2.17
2022-09-24T13:26:36.726Z,2.58
2022-09-24T13:29:08.980Z,2.50
2022-09-24T13:31:49.067Z,2.60
2022-09-24T13:34:24.542Z,2.67
2022-09-24T13:37:01.863Z,2.80
2022-09-24T13:39:39.261Z,2.55
2022-09-24T13:42:22.934Z,2.20
2022-09-24T13:44:58.325Z,2.50
2022-09-24T13:47:39.089Z,2.30
2022-09-24T13:50:18.278Z,2.50
2022-09-24T13:52:54.174Z,2.45
2022-09-24T13:55:31.101Z,2.28
2022-09-24T13:58:04.293Z,2.53
2022-09-24T14:00:37.380Z,2.55
2022-09-24T14:03:26.923Z,2.40
2022-09-24T14:05:57.315Z,2.50
2022-09-24T14:08:30.042Z,2.55
2022-09-24T14:11:10.900Z,2.70
2022-09-24T14:13:46.155Z,2.30
2022-09-24T14:16:20.027Z,2.38
2022-09-24T14:18:51.139Z,2.70
2022-09-24T14:21:26.669Z,2.40
2022-09-24T14:24:01.341Z,2.28
2022-09-24T14:26:35.799Z,2.30
2022-09-24T14:29:16.288Z,2.42
2022-09-24T14:31:50.130Z,2.95
2022-09-24T14:34:30.016Z,2.50
2022-09-24T14:37:03.843Z,2.40
2022-09-24T14:39:33.998Z,2.78
2022-09-24T14:42:04.203Z,2.55
2022-09-24T14:44:37.782Z,2.50
2022-09-24T14:47:29.217Z,2.30
2022-09-24T14:50:00.042Z,2.72
2022-09-24T14:52:33.929Z,2.45
2022-09-24T14:55:16.275Z,2.70
2022-09-24T14:57:50.885Z,2.30
2022-09-24T15:00:29.412Z,2.60
2022-09-24T15:03:02.940Z,2.58
2022-09-24T15:05:33.541Z,2.40
2022-09-24T15:08:29.562Z,2.47
2022-09-24T15:11:01.932Z,2.38
2022-09-24T15:13:35.434Z,2.90
2022-09-24T15:16:21.611Z,2.63
2022-09-24T15:19:01.877Z,3.05
2022-09-24T15:24:02.033Z,2.10
2022-09-24T15:29:05.214Z,2.17
2022-09-24T15:31:38.035Z,2.60
2022-09-24T15:34:08.148Z,2.60
2022-09-24T15:36:38.193Z,2.40
2022-09-24T15:39:08.664Z,2.40
2022-09-24T15:41:38.914Z,2.10
2022-09-24T15:46:41.938Z,2.13
2022-09-24T15:49:12.125Z,2.40
2022-09-24T15:54:12.866Z,2.05
2022-09-24T15:56:44.310Z,2.15
2022-09-24T15:59:17.066Z,1.90
2022-09-24T16:01:51.163Z,2.42
2022-09-24T16:04:21.346Z,2.10
2022-09-24T16:06:51.949Z,2.30
2022-09-24T16:09:22.053Z,2.38
2022-09-24T16:11:52.230Z,2.08
2022-09-24T16:14:22.304Z,2.55
2022-09-24T16:16:55.866Z,2.33
2022-09-24T16:19:26.330Z,2.10
2022-09-24T16:21:56.632Z,2.50
2022-09-24T16:24:27.141Z,2.80
2022-09-24T16:26:57.208Z,2.65
2022-09-24T16:29:27.390Z,2.40
2022-09-24T16:32:02.141Z,2.40
2022-09-24T16:34:33.013Z,2.35
2022-09-24T16:37:03.231Z,2.30
2022-09-24T16:39:33.354Z,2.72
2022-09-24T16:42:03.445Z,2.30
2022-09-24T16:44:33.517Z,2.40
2022-09-24T16:47:06.372Z,2.40
2022-09-24T16:49:37.638Z,2.63
2022-09-24T16:52:07.716Z,2.38
2022-09-24T16:54:37.820Z,2.70
2022-09-24T16:57:08.845Z,3.00
2022-09-24T16:59:39.012Z,3.30
2022-09-24T17:02:13.616Z,2.47
2022-09-24T17:04:43.745Z,4.90
2022-09-24T17:07:13.899Z,3.22
2022-09-24T17:09:56.465Z,3.03
2022-09-24T17:12:26.744Z,2.75
2022-09-24T17:14:57.767Z,3.03
2022-09-24T17:17:30.982Z,3.38
2022-09-24T17:20:01.140Z,3.72
2022-09-24T17:22:32.570Z,2.90
2022-09-24T17:25:02.633Z,3.83
2022-09-24T17:27:33.905Z,3.45
2022-09-24T17:30:04.306Z,3.70
2022-09-24T17:32:39.374Z,3.88
2022-09-24T17:35:11.378Z,3.70
2022-09-24T17:37:41.545Z,3.25
2022-09-24T17:40:12.858Z,3.90
2022-09-24T17:42:47.200Z,4.57
2022-09-24T17:45:17.327Z,4.35
2022-09-24T17:48:00.582Z,4.78
2022-09-24T17:50:32.427Z,5.30
2022-09-24T17:53:03.941Z,5.00
2022-09-24T17:55:34.038Z,5.18
2022-09-24T17:58:04.182Z,5.40
2022-09-24T18:00:34.273Z,5.50
2022-09-24T18:03:07.171Z,5.20
2022-09-24T18:05:38.002Z,4.97
2022-09-24T18:10:38.656Z,6.13
2022-09-24T18:13:08.930Z,5.88
2022-09-24T18:15:40.762Z,6.10
2022-09-24T18:18:13.449Z,15.23
2022-09-24T18:20:43.507Z,49.17
2022-09-24T18:23:14.014Z,7.40
2022-09-24T18:25:44.080Z,7.07
2022-09-24T18:28:18.010Z,6.50
2022-09-24T18:30:48.920Z,8.07
2022-09-24T18:33:21.728Z,9.23
2022-09-24T18:35:51.799Z,9.18
2022-09-24T18:38:21.943Z,8.13
2022-09-24T18:40:52.206Z,7.25
2022-09-24T18:43:22.291Z,6.38
2022-09-24T18:45:52.443Z,6.90
2022-09-24T18:48:25.209Z,7.82
2022-09-24T18:50:55.245Z,6.70
2022-09-24T18:53:25.242Z,6.27
2022-09-24T18:55:55.392Z,6.53
2022-09-24T18:58:25.865Z,5.55
2022-09-24T19:01:02.038Z,6.60
2022-09-24T19:03:35.344Z,7.55
2022-09-24T19:06:08.000Z,6.82
2022-09-24T19:08:38.764Z,6.45
2022-09-24T19:13:43.338Z,13.35
2022-09-24T19:16:16.336Z,11.10
2022-09-24T19:18:49.322Z,7.32
2022-09-24T19:21:19.949Z,7.78
2022-09-24T19:23:52.704Z,7.50
2022-09-24T19:26:26.274Z,7.68
2022-09-24T19:28:57.228Z,7.10
2022-09-24T19:31:30.032Z,7.00
2022-09-24T19:34:05.048Z,7.43
2022-09-24T19:36:43.784Z,7.95
2022-09-24T19:39:18.231Z,8.18
2022-09-24T19:41:53.013Z,6.90
2022-09-24T19:44:23.411Z,7.30
2022-09-24T19:46:53.540Z,7.30
2022-09-24T19:49:26.395Z,7.60
2022-09-24T19:51:56.502Z,7.70
2022-09-24T19:54:26.801Z,7.05
2022-09-24T19:56:57.068Z,7.97
2022-09-24T19:59:27.368Z,8.10
2022-09-24T20:01:57.495Z,7.60
2022-09-24T20:04:30.359Z,8.52
2022-09-24T20:07:05.685Z,8.40
2022-09-24T20:09:36.239Z,8.43
2022-09-24T20:12:06.708Z,7.82
2022-09-24T20:14:36.790Z,8.40
2022-09-24T20:17:07.189Z,8.95
2022-09-24T20:19:40.101Z,8.32
2022-09-24T20:22:12.849Z,9.05
2022-09-24T20:24:48.007Z,9.25
2022-09-24T20:27:30.667Z,9.70
2022-09-24T20:30:00.754Z,8.85
2022-09-24T20:32:31.995Z,9.10
2022-09-24T20:35:04.768Z,13.65
2022-09-24T20:37:34.911Z,11.70
2022-09-24T20:40:05.360Z,9.30
2022-09-24T20:42:35.474Z,8.27
2022-09-24T20:45:06.455Z,8.70
2022-09-24T20:47:39.053Z,7.85
2022-09-24T20:50:13.508Z,8.57
2022-09-24T20:52:43.624Z,8.20
2022-09-24T20:55:15.308Z,10.30
2022-09-24T20:57:46.642Z,8.02
2022-09-24T21:00:17.950Z,8.27
2022-09-24T21:02:48.034Z,7.88
2022-09-24T21:05:22.500Z,8.93
2022-09-24T21:07:53.048Z,9.10
2022-09-24T21:10:23.177Z,9.75
2022-09-24T21:12:53.401Z,11.07
2022-09-24T21:15:23.464Z,10.85
2022-09-24T21:18:18.469Z,9.97
2022-09-24T21:20:46.515Z,9.57
2022-09-24T21:23:16.765Z,9.25
2022-09-24T21:25:54.520Z,13.43
2022-09-24T21:28:25.367Z,17.58
2022-09-24T21:31:05.137Z,27.38
2022-09-24T21:33:37.344Z,11.68
2022-09-24T21:36:12.040Z,10.57
2022-09-24T21:38:42.476Z,25.70
2022-09-24T21:41:12.574Z,12.32
2022-09-24T21:43:42.670Z,10.50
2022-09-24T21:46:13.986Z,10.00
2022-09-24T21:48:44.180Z,10.65
2022-09-24T21:51:21.629Z,9.45
2022-09-24T21:53:54.167Z,10.38
2022-09-24T21:56:25.120Z,8.98
2022-09-24T21:58:56.280Z,9.15
2022-09-24T22:01:29.269Z,8.80
2022-09-24T22:04:04.164Z,8.23
2022-09-24T22:06:37.030Z,8.02
2022-09-24T22:09:10.714Z,8.32
2022-09-24T22:11:40.878Z,7.95
2022-09-24T22:14:12.208Z,7.65
2022-09-24T22:16:42.880Z,8.80
2022-09-24T22:19:12.969Z,7.70
2022-09-24T22:21:45.903Z,9.70
2022-09-24T22:24:16.035Z,8.27
2022-09-24T22:26:46.413Z,7.60
2022-09-24T22:29:16.564Z,7.85
2022-09-24T22:31:46.729Z,7.90
2022-09-24T22:34:29.269Z,8.20
2022-09-24T22:37:01.987Z,7.88
2022-09-24T22:39:32.118Z,7.63
2022-09-24T22:42:02.088Z,7.63
2022-09-24T22:44:32.125Z,7.13
2022-09-24T22:47:02.205Z,7.47
2022-09-24T22:49:32.777Z,7.30
2022-09-24T22:52:05.475Z,7.22
2022-09-24T22:54:35.805Z,6.95
2022-09-24T22:57:05.841Z,7.55
2022-09-24T22:59:36.245Z,7.63
2022-09-24T23:02:10.777Z,7.07
2022-09-24T23:04:43.049Z,7.32
2022-09-24T23:07:16.586Z,7.37
2022-09-24T23:09:46.719Z,7.30
2022-09-24T23:12:16.697Z,7.50
2022-09-24T23:14:46.662Z,7.40
2022-09-24T23:17:16.705Z,7.73
2022-09-24T23:19:52.927Z,7.60
2022-09-24T23:22:26.296Z,7.10
2022-09-24T23:24:56.549Z,7.47
2022-09-24T23:27:26.680Z,6.90
2022-09-24T23:29:56.837Z,7.50
2022-09-24T23:32:26.887Z,7.13
2022-09-24T23:34:56.970Z,7.50
2022-09-24T23:37:29.610Z,7.10
2022-09-24T23:39:59.892Z,6.82
2022-09-24T23:42:31.487Z,6.90
2022-09-24T23:45:02.235Z,6.88
2022-09-24T23:47:36.003Z,6.68
2022-09-24T23:50:07.457Z,6.70
2022-09-24T23:52:40.194Z,6.50
2022-09-24T23:55:11.355Z,6.38
2022-09-24T23:57:41.443Z,6.53
